createdAt,value
2023-04-04T00:01:12.801Z,4.10
2023-04-04T00:03:41.368Z,2.23
2023-04-04T00:06:11.380Z,3.50
2023-04-04T00:08:40.078Z,4.63
2023-04-04T00:11:08.496Z,4.35
2023-04-04T00:13:37.491Z,1.67
2023-04-04T00:16:06.858Z,1.60
2023-04-04T00:18:35.338Z,2.57
2023-04-04T00:21:03.743Z,4.33
2023-04-04T00:23:33.487Z,3.93
2023-04-04T00:26:01.805Z,2.27
2023-04-04T00:28:30.151Z,2.60
2023-04-04T00:30:58.459Z,2.10
2023-04-04T00:33:27.494Z,2.70
2023-04-04T00:35:56.116Z,2.53
2023-04-04T00:38:24.468Z,3.53
2023-04-04T00:40:54.294Z,1.63
2023-04-04T00:43:23.067Z,1.93
2023-04-04T00:45:53.090Z,1.40
2023-04-04T00:48:24.952Z,3.33
2023-04-04T00:50:53.706Z,2.73
2023-04-04T00:53:22.260Z,2.63
2023-04-04T00:55:50.707Z,3.33
2023-04-04T00:58:20.521Z,3.10
2023-04-04T01:00:48.972Z,2.30
2023-04-04T01:03:17.729Z,1.90
2023-04-04T01:05:46.057Z,2.53
2023-04-04T01:08:14.697Z,3.60
2023-04-04T01:10:43.831Z,1.87
2023-04-04T01:13:13.019Z,2.93
2023-04-04T01:15:42.845Z,2.23
2023-04-04T01:18:15.803Z,1.27
2023-04-04T01:20:53.355Z,2.30
2023-04-04T01:23:25.596Z,1.83
2023-04-04T01:26:04.003Z,4.30
2023-04-04T01:28:32.437Z,7.67
2023-04-04T01:31:03.304Z,3.33
2023-04-04T01:33:37.629Z,5.80
2023-04-04T01:36:12.898Z,3.80
2023-04-04T01:38:49.603Z,3.17
2023-04-04T01:41:20.736Z,2.60
2023-04-04T01:43:49.445Z,4.70
2023-04-04T01:46:18.672Z,4.40
2023-04-04T01:48:47.852Z,4.50
2023-04-04T01:51:17.259Z,4.10
2023-04-04T01:53:46.813Z,3.23
2023-04-04T01:56:15.130Z,2.90
2023-04-04T01:58:44.895Z,4.43
2023-04-04T02:01:13.350Z,3.30
2023-04-04T02:03:41.775Z,6.00
2023-04-04T02:06:10.277Z,3.00
2023-04-04T02:08:39.548Z,4.03
2023-04-04T02:11:07.988Z,3.43
2023-04-04T02:13:38.004Z,3.03
2023-04-04T02:16:08.007Z,4.13
2023-04-04T02:18:36.368Z,4.13
2023-04-04T02:21:04.919Z,5.27
2023-04-04T02:23:33.436Z,2.60
2023-04-04T02:26:01.817Z,4.00
2023-04-04T02:28:31.432Z,1.87
2023-04-04T02:31:02.979Z,2.70
2023-04-04T02:33:33.006Z,3.37
2023-04-04T02:36:01.645Z,3.07
2023-04-04T02:38:30.112Z,2.83
2023-04-04T02:40:58.473Z,3.13
2023-04-04T02:43:26.793Z,3.37
2023-04-04T02:45:55.221Z,4.00
2023-04-04T02:48:24.341Z,6.13
2023-04-04T02:50:54.131Z,2.33
2023-04-04T02:53:22.632Z,1.47
2023-04-04T02:55:50.972Z,3.30
2023-04-04T02:58:19.354Z,3.70
2023-04-04T03:00:48.359Z,2.67
2023-04-04T03:03:17.033Z,2.43
2023-04-04T03:05:46.338Z,2.20
2023-04-04T03:08:16.244Z,5.17
2023-04-04T03:10:45.976Z,3.43
2023-04-04T03:13:14.284Z,4.07
2023-04-04T03:15:43.943Z,3.73
2023-04-04T03:18:16.059Z,2.10
2023-04-04T03:20:44.735Z,2.17
2023-04-04T03:23:13.072Z,3.10
2023-04-04T03:25:42.799Z,2.50
2023-04-04T03:28:11.668Z,4.40
2023-04-04T03:30:40.425Z,2.97
2023-04-04T03:33:10.176Z,3.17
2023-04-04T03:35:41.928Z,2.90
2023-04-04T03:38:11.087Z,3.33
2023-04-04T03:40:39.965Z,5.23
2023-04-04T03:43:10.328Z,3.57
2023-04-04T03:45:39.285Z,5.50
2023-04-04T03:48:08.088Z,3.77
2023-04-04T03:50:38.177Z,5.57
2023-04-04T03:53:07.279Z,5.50
2023-04-04T03:55:35.884Z,4.30
2023-04-04T03:58:04.195Z,5.77
2023-04-04T04:00:33.938Z,2.40
2023-04-04T04:03:02.412Z,4.63
2023-04-04T04:05:30.814Z,3.70
2023-04-04T04:07:59.091Z,2.97
2023-04-04T04:10:27.516Z,4.03
2023-04-04T04:12:55.951Z,4.07
2023-04-04T04:15:24.390Z,4.63
2023-04-04T04:17:54.256Z,3.53
2023-04-04T04:20:22.592Z,4.17
2023-04-04T04:22:53.347Z,3.77
2023-04-04T04:25:22.481Z,3.20
2023-04-04T04:27:51.191Z,4.27
2023-04-04T04:30:19.553Z,1.43
2023-04-04T04:32:50.187Z,2.13
2023-04-04T04:35:20.022Z,3.23
2023-04-04T04:37:48.577Z,6.43
2023-04-04T04:40:17.231Z,2.40
2023-04-04T04:42:46.718Z,5.07
2023-04-04T04:45:15.400Z,4.63
2023-04-04T04:47:44.073Z,5.73
2023-04-04T04:50:12.956Z,3.60
2023-04-04T04:52:42.741Z,2.30
2023-04-04T04:55:12.020Z,4.57
2023-04-04T04:57:40.462Z,3.50
2023-04-04T05:00:10.611Z,4.40
2023-04-04T05:02:39.001Z,4.07
2023-04-04T05:05:08.132Z,3.40
2023-04-04T05:07:36.550Z,7.43
2023-04-04T05:10:07.045Z,3.97
2023-04-04T05:12:35.421Z,5.43
2023-04-04T05:15:03.827Z,5.80
2023-04-04T05:17:32.625Z,5.43
2023-04-04T05:20:01.149Z,4.43
2023-04-04T05:22:29.703Z,5.53
2023-04-04T05:24:58.227Z,4.87
2023-04-04T05:27:28.038Z,4.17
2023-04-04T05:29:56.693Z,3.93
2023-04-04T05:32:25.872Z,4.20
2023-04-04T05:34:54.263Z,5.90
2023-04-04T05:37:22.761Z,4.10
2023-04-04T05:39:51.228Z,4.03
2023-04-04T05:42:19.472Z,5.93
2023-04-04T05:44:49.184Z,8.00
2023-04-04T05:47:17.446Z,5.10
2023-04-04T05:49:45.801Z,5.10
2023-04-04T05:52:14.065Z,7.13
2023-04-04T05:54:42.324Z,6.27
2023-04-04T05:57:10.813Z,6.47
2023-04-04T05:59:39.236Z,4.17
2023-04-04T06:02:08.988Z,5.70
2023-04-04T06:04:37.305Z,6.93
2023-04-04T06:07:05.838Z,12.93
2023-04-04T06:09:34.245Z,7.63
2023-04-04T06:12:04.486Z,7.60
2023-04-04T06:14:32.818Z,5.20
2023-04-04T06:17:01.203Z,7.70
2023-04-04T06:19:30.915Z,2.50
2023-04-04T06:21:59.258Z,3.07
2023-04-04T06:24:27.640Z,5.17
2023-04-04T06:26:56.156Z,7.23
2023-04-04T06:29:24.571Z,2.87
2023-04-04T06:31:53.026Z,4.47
2023-04-04T06:34:22.940Z,11.27
2023-04-04T06:36:52.729Z,5.87
2023-04-04T06:39:21.189Z,9.10
2023-04-04T06:41:49.592Z,4.47
2023-04-04T06:44:17.906Z,4.15
2023-04-04T06:46:47.016Z,4.80
2023-04-04T06:49:15.632Z,8.00
2023-04-04T06:51:44.541Z,5.97
2023-04-04T06:54:14.285Z,4.60
2023-04-04T06:56:42.586Z,4.68
2023-04-04T06:59:12.167Z,5.60
2023-04-04T07:01:40.701Z,6.32
2023-04-04T07:04:09.100Z,4.75
2023-04-04T07:06:37.675Z,3.70
2023-04-04T07:09:08.964Z,5.43
2023-04-04T07:11:42.659Z,5.68
2023-04-04T07:14:10.960Z,9.68
2023-04-04T07:16:39.250Z,3.67
2023-04-04T07:19:07.902Z,2.60
2023-04-04T07:21:36.232Z,4.72
2023-04-04T07:24:04.637Z,2.03
2023-04-04T07:26:34.068Z,4.15
2023-04-04T07:29:03.984Z,3.28
2023-04-04T07:31:32.712Z,2.03
2023-04-04T07:34:01.524Z,1.17
2023-04-04T07:36:29.945Z,4.30
2023-04-04T07:38:58.537Z,3.10
2023-04-04T07:41:27.217Z,2.92
2023-04-04T07:43:55.492Z,2.20
2023-04-04T07:46:25.264Z,1.42
2023-04-04T07:48:53.619Z,5.13
2023-04-04T07:51:29.362Z,2.50
2023-04-04T07:53:57.837Z,3.08
2023-04-04T07:56:26.351Z,1.77
2023-04-04T07:58:54.848Z,2.50
2023-04-04T08:01:24.650Z,3.95
2023-04-04T08:03:53.711Z,2.85
2023-04-04T08:06:22.222Z,1.65
2023-04-04T08:08:50.832Z,2.60
2023-04-04T08:11:19.131Z,3.65
2023-04-04T08:13:47.824Z,4.03
2023-04-04T08:16:16.193Z,5.13
2023-04-04T08:18:45.902Z,2.50
2023-04-04T08:21:14.350Z,2.35
2023-04-04T08:23:42.946Z,3.88
2023-04-04T08:26:11.880Z,2.58
2023-04-04T08:28:40.503Z,8.40
2023-04-04T08:31:10.420Z,1.77
2023-04-04T08:33:47.452Z,5.03
2023-04-04T08:36:17.897Z,1.27
2023-04-04T08:38:46.233Z,0.88
2023-04-04T08:41:15.746Z,4.68
2023-04-04T08:43:47.094Z,1.83
2023-04-04T08:46:16.651Z,1.00
2023-04-04T08:48:47.396Z,1.83
2023-04-04T08:51:17.672Z,0.70
2023-04-04T08:53:46.176Z,3.70
2023-04-04T08:56:15.418Z,2.38
2023-04-04T08:58:43.919Z,1.67
2023-04-04T09:01:12.496Z,1.00
2023-04-04T09:03:41.429Z,0.57
2023-04-04T09:06:10.478Z,0.55
2023-04-04T09:08:41.829Z,0.50
2023-04-04T09:11:10.990Z,1.48
2023-04-04T09:13:41.415Z,2.17
2023-04-04T09:16:09.874Z,0.57
2023-04-04T09:18:38.660Z,2.55
2023-04-04T09:21:10.734Z,2.63
2023-04-04T09:23:40.980Z,3.72
2023-04-04T09:26:09.334Z,2.08
2023-04-04T09:28:38.024Z,1.20
2023-04-04T09:31:10.259Z,1.05
2023-04-04T09:33:40.548Z,3.17
2023-04-04T09:36:11.161Z,1.70
2023-04-04T09:38:43.258Z,1.23
2023-04-04T09:41:12.124Z,1.80
2023-04-04T09:43:41.466Z,2.00
2023-04-04T09:46:10.137Z,2.17
2023-04-04T09:48:38.808Z,6.32
2023-04-04T09:51:08.272Z,2.85
2023-04-04T09:53:38.102Z,2.67
2023-04-04T09:56:08.837Z,0.60
2023-04-04T09:58:40.528Z,2.10
2023-04-04T10:01:15.468Z,1.10
2023-04-04T10:03:44.198Z,1.13
2023-04-04T10:06:12.995Z,2.15
2023-04-04T10:08:43.862Z,1.45
2023-04-04T10:11:14.260Z,2.50
2023-04-04T10:13:44.736Z,1.50
2023-04-04T10:16:13.545Z,4.15
2023-04-04T10:18:42.513Z,1.77
2023-04-04T10:23:44.070Z,2.47
2023-04-04T10:26:14.449Z,5.22
2023-04-04T10:28:44.277Z,5.53
2023-04-04T10:31:24.298Z,1.48
2023-04-04T10:33:56.422Z,2.22
2023-04-04T10:36:25.581Z,3.47
2023-04-04T10:39:01.196Z,3.20
2023-04-04T10:41:33.985Z,2.97
2023-04-04T10:44:06.773Z,5.55
2023-04-04T10:46:36.120Z,1.52
2023-04-04T10:49:04.853Z,2.10
2023-04-04T10:51:39.427Z,4.35
2023-04-04T10:54:14.400Z,1.60
2023-04-04T10:56:44.591Z,3.17
2023-04-04T10:59:17.222Z,1.20
2023-04-04T11:01:50.048Z,2.33
2023-04-04T11:04:21.100Z,1.15
2023-04-04T11:07:08.858Z,6.03
2023-04-04T11:09:57.029Z,2.50
2023-04-04T11:12:33.221Z,1.48
2023-04-04T11:15:11.629Z,3.85
2023-04-04T11:17:52.801Z,0.93
2023-04-04T11:20:22.555Z,1.25
2023-04-04T11:22:51.725Z,1.98
2023-04-04T11:25:44.016Z,3.33
2023-04-04T11:28:17.223Z,1.42
2023-04-04T11:30:48.924Z,1.95
2023-04-04T11:33:28.708Z,3.47
2023-04-04T11:36:00.789Z,2.13
2023-04-04T11:46:19.732Z,1.55
2023-04-04T11:48:49.546Z,3.03
2023-04-04T11:51:18.196Z,1.65
2023-04-04T11:53:48.986Z,2.90
2023-04-04T11:56:17.606Z,2.92
2023-04-04T11:58:56.058Z,2.83
2023-04-04T12:01:31.916Z,4.63
2023-04-04T12:04:01.386Z,1.30
2023-04-04T12:06:33.198Z,7.03
2023-04-04T12:09:02.288Z,4.78
2023-04-04T12:11:32.188Z,2.92
2023-04-04T12:14:01.051Z,4.18
2023-04-04T12:16:31.129Z,2.78
2023-04-04T12:19:03.214Z,1.75
2023-04-04T12:21:33.773Z,1.27
2023-04-04T12:24:02.661Z,1.70
2023-04-04T12:26:33.702Z,5.18
2023-04-04T12:29:02.423Z,1.35
2023-04-04T12:31:32.425Z,6.25
2023-04-04T12:34:01.278Z,4.13
2023-04-04T12:36:31.574Z,2.42
2023-04-04T12:39:02.362Z,3.35
2023-04-04T12:41:30.783Z,2.58
2023-04-04T12:44:03.708Z,4.15
2023-04-04T12:46:39.963Z,2.65
2023-04-04T12:49:11.215Z,5.20
2023-04-04T12:51:39.968Z,4.10
2023-04-04T12:54:09.212Z,1.60
2023-04-04T12:56:38.398Z,1.35
2023-04-04T12:59:11.037Z,2.42
2023-04-04T13:01:42.140Z,3.20
2023-04-04T13:04:10.707Z,4.85
2023-04-04T13:06:39.609Z,3.97
2023-04-04T13:09:08.847Z,1.90
2023-04-04T13:11:59.933Z,1.55
2023-04-04T13:14:29.072Z,3.10
2023-04-04T13:17:08.433Z,1.70
2023-04-04T13:19:36.996Z,8.32
2023-04-04T13:22:09.240Z,2.53
2023-04-04T13:24:39.785Z,2.22
2023-04-04T13:27:09.368Z,8.00
2023-04-04T13:29:37.767Z,1.33
2023-04-04T13:32:08.204Z,1.42
2023-04-04T13:34:37.175Z,1.48
2023-04-04T13:37:05.855Z,3.33
2023-04-04T13:39:34.569Z,7.65
2023-04-04T13:42:03.888Z,1.20
2023-04-04T13:44:32.569Z,2.13
2023-04-04T13:47:01.258Z,3.90
2023-04-04T13:49:31.038Z,4.68
2023-04-04T13:51:59.380Z,2.63
2023-04-04T13:54:27.698Z,2.13
2023-04-04T13:56:57.374Z,3.08
2023-04-04T13:59:25.894Z,1.75
2023-04-04T14:01:54.462Z,2.50
2023-04-04T14:04:24.337Z,3.05
2023-04-04T14:06:54.350Z,3.35
2023-04-04T14:09:23.109Z,3.92
2023-04-04T14:11:51.558Z,2.05
2023-04-04T14:14:19.865Z,3.92
2023-04-04T14:16:48.547Z,2.50
2023-04-04T14:19:17.208Z,2.50
2023-04-04T14:21:45.581Z,4.43
2023-04-04T14:24:15.420Z,1.85
2023-04-04T14:26:43.683Z,2.15
2023-04-04T14:29:12.083Z,3.47
2023-04-04T14:31:40.764Z,6.93
2023-04-04T14:34:09.234Z,2.78
2023-04-04T14:36:37.756Z,2.45
2023-04-04T14:39:06.093Z,1.75
2023-04-04T14:41:35.924Z,3.30
2023-04-04T14:44:04.223Z,1.52
2023-04-04T14:46:34.079Z,2.05
2023-04-04T14:49:05.806Z,1.98
2023-04-04T14:51:34.743Z,2.78
2023-04-04T14:54:03.578Z,1.85
2023-04-04T14:56:32.137Z,2.88
2023-04-04T14:59:03.901Z,2.92
2023-04-04T15:01:32.478Z,3.75
2023-04-04T15:04:00.864Z,4.72
2023-04-04T15:06:34.608Z,2.05
2023-04-04T15:09:04.803Z,4.47
2023-04-04T15:11:33.577Z,3.35
2023-04-04T15:14:07.102Z,2.55
2023-04-04T15:16:36.070Z,3.80
2023-04-04T15:19:04.447Z,2.97
2023-04-04T15:21:32.847Z,3.60
2023-04-04T15:24:01.194Z,3.92
2023-04-04T15:26:29.525Z,1.92
2023-04-04T15:28:57.864Z,1.70
2023-04-04T15:31:28.201Z,2.40
2023-04-04T15:33:59.242Z,3.42
2023-04-04T15:36:29.042Z,4.03
2023-04-04T15:38:57.487Z,3.55
2023-04-04T15:41:25.977Z,3.67
2023-04-04T15:43:54.326Z,1.85
2023-04-04T15:46:22.805Z,2.25
2023-04-04T15:48:53.069Z,1.92
2023-04-04T15:51:22.273Z,4.18
2023-04-04T15:53:51.140Z,3.08
2023-04-04T15:56:19.943Z,4.60
2023-04-04T15:58:48.346Z,6.95
2023-04-04T16:01:16.829Z,2.53
2023-04-04T16:03:45.354Z,3.00
2023-04-04T16:06:15.373Z,4.60
2023-04-04T16:08:44.534Z,6.10
2023-04-04T16:11:13.589Z,3.10
2023-04-04T16:13:43.120Z,2.92
2023-04-04T16:16:11.778Z,3.03
2023-04-04T16:18:40.872Z,3.90
2023-04-04T16:21:09.437Z,4.38
2023-04-04T16:23:39.883Z,1.90
2023-04-04T16:26:09.509Z,3.40
2023-04-04T16:28:38.767Z,2.78
2023-04-04T16:31:07.872Z,1.90
2023-04-04T16:33:36.433Z,2.40
2023-04-04T16:36:05.056Z,4.43
2023-04-04T16:38:33.545Z,2.17
2023-04-04T16:41:03.551Z,3.90
2023-04-04T16:43:32.154Z,4.15
2023-04-04T16:46:00.595Z,5.32
2023-04-04T16:48:28.877Z,2.60
2023-04-04T16:50:57.764Z,5.70
2023-04-04T16:53:26.698Z,4.57
2023-04-04T16:55:55.122Z,5.82
2023-04-04T16:58:25.034Z,2.30
2023-04-04T17:00:53.737Z,2.38
2023-04-04T17:03:22.119Z,2.88
2023-04-04T17:05:50.481Z,5.30
2023-04-04T17:08:18.843Z,4.25
2023-04-04T17:10:47.123Z,3.08
2023-04-04T17:13:15.441Z,6.50
2023-04-04T17:15:46.917Z,2.63
2023-04-04T17:18:15.419Z,4.78
2023-04-04T17:20:43.853Z,5.82
2023-04-04T17:23:12.316Z,2.85
2023-04-04T17:25:40.746Z,2.70
2023-04-04T17:28:09.127Z,4.18
2023-04-04T17:30:37.882Z,2.95
2023-04-04T17:33:08.150Z,3.33
2023-04-04T17:35:36.829Z,2.90
2023-04-04T17:38:05.207Z,5.20
2023-04-04T17:40:36.360Z,2.33
2023-04-04T17:43:04.738Z,2.83
2023-04-04T17:45:33.165Z,3.80
2023-04-04T17:48:01.561Z,2.15
2023-04-04T17:50:31.504Z,6.28
2023-04-04T17:53:01.638Z,4.78
2023-04-04T17:55:30.479Z,2.83
2023-04-04T17:57:58.847Z,5.30
2023-04-04T18:00:27.311Z,4.00
2023-04-04T18:02:56.345Z,3.75
2023-04-04T18:05:25.413Z,5.32
2023-04-04T18:07:56.052Z,4.38
2023-04-04T18:10:24.718Z,7.75
2023-04-04T18:12:53.311Z,5.78
2023-04-04T18:15:21.906Z,7.53
2023-04-04T18:17:50.649Z,4.43
2023-04-04T18:20:31.688Z,3.83
2023-04-04T18:23:05.185Z,4.85
2023-04-04T18:25:33.859Z,5.68
2023-04-04T18:28:03.208Z,6.15
2023-04-04T18:30:35.064Z,5.05
2023-04-04T18:33:04.227Z,5.68
2023-04-04T18:35:32.761Z,6.50
2023-04-04T18:38:01.277Z,6.05
2023-04-04T18:40:31.211Z,7.07
2023-04-04T18:42:59.612Z,7.05
2023-04-04T18:45:37.433Z,8.52
2023-04-04T18:48:09.555Z,9.68
2023-04-04T18:50:38.012Z,8.32
2023-04-04T18:53:06.502Z,7.80
2023-04-04T18:55:36.384Z,8.40
2023-04-04T18:58:04.727Z,12.55
2023-04-04T19:00:33.506Z,8.38
2023-04-04T19:03:01.892Z,7.45
2023-04-04T19:05:34.196Z,12.30
2023-04-04T19:08:04.391Z,15.90
2023-04-04T19:10:33.511Z,9.15
2023-04-04T19:13:03.540Z,8.80
2023-04-04T19:15:31.960Z,9.15
2023-04-04T19:18:00.466Z,8.80
2023-04-04T19:20:29.049Z,8.88
2023-04-04T19:22:57.337Z,9.32
2023-04-04T19:25:26.578Z,10.80
2023-04-04T19:27:55.054Z,8.52
2023-04-04T19:30:43.053Z,11.18
2023-04-04T19:33:12.565Z,11.80
2023-04-04T19:35:53.838Z,10.40
2023-04-04T19:38:25.256Z,9.60
2023-04-04T19:40:56.407Z,13.18
2023-04-04T19:43:24.945Z,11.82
2023-04-04T19:45:57.216Z,10.32
2023-04-04T19:48:48.619Z,13.18
2023-04-04T19:51:39.365Z,10.98
2023-04-04T19:54:12.053Z,12.43
2023-04-04T19:56:40.768Z,10.75
2023-04-04T19:59:12.291Z,16.35
2023-04-04T20:01:47.497Z,12.50
2023-04-04T20:04:26.597Z,14.52
2023-04-04T20:06:55.590Z,16.67
2023-04-04T20:09:38.442Z,12.60
2023-04-04T20:12:09.519Z,17.33
2023-04-04T20:14:38.061Z,18.00
2023-04-04T20:17:09.759Z,14.55
2023-04-04T20:19:38.302Z,15.48
2023-04-04T20:22:07.132Z,13.13
2023-04-04T20:24:36.009Z,13.30
2023-04-04T20:27:05.050Z,15.32
2023-04-04T20:29:34.755Z,18.13
2023-04-04T20:32:04.380Z,16.95
2023-04-04T20:34:39.106Z,17.30
2023-04-04T20:37:11.986Z,15.32
2023-04-04T20:39:43.982Z,15.98
2023-04-04T20:42:19.876Z,14.73
2023-04-04T20:44:48.606Z,15.75
2023-04-04T20:47:42.739Z,16.23
2023-04-04T20:50:45.214Z,18.27
2023-04-04T20:53:21.205Z,15.50
2023-04-04T20:55:50.695Z,21.70
2023-04-04T20:58:30.668Z,17.55
2023-04-04T21:01:02.629Z,18.40
2023-04-04T21:03:33.650Z,15.00
2023-04-04T21:06:13.017Z,22.20
2023-04-04T21:08:47.048Z,16.23
2023-04-04T21:11:29.085Z,19.30
2023-04-04T21:13:58.715Z,19.00
2023-04-04T21:16:29.791Z,17.27
2023-04-04T21:18:59.175Z,20.58
2023-04-04T21:21:29.673Z,18.65
2023-04-04T21:23:58.819Z,18.83
2023-04-04T21:26:29.828Z,20.80
2023-04-04T21:28:59.760Z,23.92
2023-04-04T21:31:34.549Z,21.00
2023-04-04T21:34:12.548Z,22.95
2023-04-04T21:36:42.677Z,26.05
2023-04-04T21:39:14.943Z,25.48
2023-04-04T21:41:45.098Z,22.67
2023-04-04T21:44:13.384Z,24.27
2023-04-04T21:46:43.243Z,25.25
2023-04-04T21:49:12.056Z,26.45
2023-04-04T21:51:42.417Z,26.27
2023-04-04T21:54:11.246Z,28.63
2023-04-04T21:56:39.664Z,32.15
2023-04-04T21:59:09.631Z,30.75
2023-04-04T22:01:38.554Z,38.28
2023-04-04T22:04:07.071Z,29.83
2023-04-04T22:06:36.403Z,30.52
2023-04-04T22:09:06.631Z,34.35
2023-04-04T22:11:38.960Z,42.55
2023-04-04T22:14:08.129Z,37.28
2023-04-04T22:16:43.160Z,37.70
2023-04-04T22:19:12.060Z,43.08
2023-04-04T22:21:48.183Z,42.58
2023-04-04T22:24:20.634Z,42.40
2023-04-04T22:26:50.736Z,45.80
2023-04-04T22:29:22.220Z,49.00
2023-04-04T22:31:50.767Z,46.88
2023-04-04T22:34:19.098Z,46.72
2023-04-04T22:36:47.438Z,59.50
2023-04-04T22:39:20.669Z,61.67
2023-04-04T22:41:49.176Z,56.80
2023-04-04T22:44:17.902Z,55.80
2023-04-04T22:46:46.888Z,62.03
2023-04-04T22:49:16.238Z,73.55
2023-04-04T22:51:45.147Z,78.65
2023-04-04T22:54:15.551Z,82.55
2023-04-04T22:56:45.484Z,83.47
2023-04-04T22:59:14.185Z,95.13
2023-04-04T23:01:42.753Z,96.90
2023-04-04T23:04:11.331Z,100.57
2023-04-04T23:06:39.796Z,99.65
2023-04-04T23:09:08.788Z,106.75
2023-04-04T23:11:37.737Z,105.63
2023-04-04T23:14:09.599Z,109.07
2023-04-04T23:16:40.159Z,111.25
2023-04-04T23:19:08.572Z,103.97
2023-04-04T23:21:38.008Z,101.60
2023-04-04T23:24:07.765Z,106.63
2023-04-04T23:26:37.466Z,110.38
2023-04-04T23:29:07.586Z,112.63
2023-04-04T23:31:36.519Z,122.82
2023-04-04T23:34:05.053Z,120.68
2023-04-04T23:36:33.422Z,133.23
2023-04-04T23:39:01.923Z,147.77
2023-04-04T23:41:30.304Z,134.10
2023-04-04T23:43:59.685Z,150.40
2023-04-04T23:46:30.536Z,154.63
2023-04-04T23:48:58.856Z,159.20
2023-04-04T23:51:38.090Z,156.40
2023-04-04T23:54:06.817Z,181.17
2023-04-04T23:56:35.641Z,178.27
2023-04-04T23:59:04.266Z,187.40
